sensor_id;sensor_type;location;lat;lon;timestamp;temperature;humidity
12622;DHT22;6376;48.182;-1.644;2022-11-20T00:01:18;12.50;84.10
12622;DHT22;6376;48.182;-1.644;2022-11-20T00:03:45;12.50;84.20
12622;DHT22;6376;48.182;-1.644;2022-11-20T00:06:13;12.60;84.00
12622;DHT22;6376;48.182;-1.644;2022-11-20T00:08:39;12.50;84.00
12622;DHT22;6376;48.182;-1.644;2022-11-20T00:11:18;12.50;85.00
12622;DHT22;6376;48.182;-1.644;2022-11-20T00:13:46;12.50;84.00
12622;DHT22;6376;48.182;-1.644;2022-11-20T00:16:16;12.50;84.00
12622;DHT22;6376;48.182;-1.644;2022-11-20T00:18:41;12.50;84.10
12622;DHT22;6376;48.182;-1.644;2022-11-20T00:21:12;12.50;84.00
12622;DHT22;6376;48.182;-1.644;2022-11-20T00:23:38;12.50;84.10
12622;DHT22;6376;48.182;-1.644;2022-11-20T00:26:06;12.50;84.00
12622;DHT22;6376;48.182;-1.644;2022-11-20T00:28:33;12.50;83.90
12622;DHT22;6376;48.182;-1.644;2022-11-20T00:31:10;12.50;83.90
12622;DHT22;6376;48.182;-1.644;2022-11-20T00:33:36;12.50;84.20
12622;DHT22;6376;48.182;-1.644;2022-11-20T00:36:07;12.50;84.10
12622;DHT22;6376;48.182;-1.644;2022-11-20T00:38:34;12.50;84.10
12622;DHT22;6376;48.182;-1.644;2022-11-20T00:41:01;12.50;84.10
12622;DHT22;6376;48.182;-1.644;2022-11-20T00:43:27;12.50;84.10
12622;DHT22;6376;48.182;-1.644;2022-11-20T00:46:01;12.50;83.90
12622;DHT22;6376;48.182;-1.644;2022-11-20T00:48:27;12.50;83.90
12622;DHT22;6376;48.182;-1.644;2022-11-20T00:50:53;12.50;83.90
12622;DHT22;6376;48.182;-1.644;2022-11-20T00:53:19;12.50;84.10
12622;DHT22;6376;48.182;-1.644;2022-11-20T00:56:00;12.50;84.10
12622;DHT22;6376;48.182;-1.644;2022-11-20T00:58:30;12.50;84.20
12622;DHT22;6376;48.182;-1.644;2022-11-20T01:01:23;12.50;84.00
12622;DHT22;6376;48.182;-1.644;2022-11-20T01:03:51;12.50;84.20
12622;DHT22;6376;48.182;-1.644;2022-11-20T01:06:22;12.50;84.20
12622;DHT22;6376;48.182;-1.644;2022-11-20T01:08:50;12.50;84.20
12622;DHT22;6376;48.182;-1.644;2022-11-20T01:11:18;12.50;84.10
12622;DHT22;6376;48.182;-1.644;2022-11-20T01:13:45;12.50;84.10
12622;DHT22;6376;48.182;-1.644;2022-11-20T01:16:19;12.50;84.10
12622;DHT22;6376;48.182;-1.644;2022-11-20T01:18:47;12.50;84.20
12622;DHT22;6376;48.182;-1.644;2022-11-20T01:21:16;12.50;84.20
12622;DHT22;6376;48.182;-1.644;2022-11-20T01:23:44;12.50;84.30
12622;DHT22;6376;48.182;-1.644;2022-11-20T01:26:13;12.50;84.20
12622;DHT22;6376;48.182;-1.644;2022-11-20T01:28:39;12.50;84.20
12622;DHT22;6376;48.182;-1.644;2022-11-20T01:31:24;12.50;84.40
12622;DHT22;6376;48.182;-1.644;2022-11-20T01:33:53;12.50;84.40
12622;DHT22;6376;48.182;-1.644;2022-11-20T01:36:21;12.50;84.50
12622;DHT22;6376;48.182;-1.644;2022-11-20T01:38:47;12.50;84.30
12622;DHT22;6376;48.182;-1.644;2022-11-20T01:41:14;12.50;84.40
12622;DHT22;6376;48.182;-1.644;2022-11-20T01:44:00;12.50;84.50
12622;DHT22;6376;48.182;-1.644;2022-11-20T01:46:26;12.40;84.40
12622;DHT22;6376;48.182;-1.644;2022-11-20T01:49:04;12.50;84.50
12622;DHT22;6376;48.182;-1.644;2022-11-20T01:51:55;12.50;84.50
12622;DHT22;6376;48.182;-1.644;2022-11-20T01:54:27;12.50;84.50
12622;DHT22;6376;48.182;-1.644;2022-11-20T01:56:57;12.50;84.60
12622;DHT22;6376;48.182;-1.644;2022-11-20T01:59:26;12.50;84.70
12622;DHT22;6376;48.182;-1.644;2022-11-20T02:01:54;12.50;84.60
12622;DHT22;6376;48.182;-1.644;2022-11-20T02:04:20;12.50;84.60
12622;DHT22;6376;48.182;-1.644;2022-11-20T02:07:06;12.50;84.80
12622;DHT22;6376;48.182;-1.644;2022-11-20T02:09:32;12.50;84.80
12622;DHT22;6376;48.182;-1.644;2022-11-20T02:11:58;12.50;84.70
12622;DHT22;6376;48.182;-1.644;2022-11-20T02:14:24;12.50;84.90
12622;DHT22;6376;48.182;-1.644;2022-11-20T02:16:50;12.50;84.70
12622;DHT22;6376;48.182;-1.644;2022-11-20T02:19:31;12.50;84.80
12622;DHT22;6376;48.182;-1.644;2022-11-20T02:22:14;12.50;84.80
12622;DHT22;6376;48.182;-1.644;2022-11-20T02:24:44;12.50;84.70
12622;DHT22;6376;48.182;-1.644;2022-11-20T02:27:12;12.50;85.00
12622;DHT22;6376;48.182;-1.644;2022-11-20T02:29:51;12.50;85.00
12622;DHT22;6376;48.182;-1.644;2022-11-20T02:32:22;12.50;84.90
12622;DHT22;6376;48.182;-1.644;2022-11-20T02:34:48;12.50;85.00
12622;DHT22;6376;48.182;-1.644;2022-11-20T02:37:14;12.50;85.00
12622;DHT22;6376;48.182;-1.644;2022-11-20T02:39:40;12.50;85.10
12622;DHT22;6376;48.182;-1.644;2022-11-20T02:42:06;12.50;85.10
12622;DHT22;6376;48.182;-1.644;2022-11-20T02:44:32;12.50;85.10
12622;DHT22;6376;48.182;-1.644;2022-11-20T02:46:58;12.50;85.10
12622;DHT22;6376;48.182;-1.644;2022-11-20T02:49:24;12.50;85.20
12622;DHT22;6376;48.182;-1.644;2022-11-20T02:51:50;12.50;85.20
12622;DHT22;6376;48.182;-1.644;2022-11-20T02:54:16;12.50;85.20
12622;DHT22;6376;48.182;-1.644;2022-11-20T02:56:42;12.50;85.40
12622;DHT22;6376;48.182;-1.644;2022-11-20T02:59:08;12.50;85.40
12622;DHT22;6376;48.182;-1.644;2022-11-20T03:01:33;12.50;85.30
12622;DHT22;6376;48.182;-1.644;2022-11-20T03:03:59;12.50;85.30
12622;DHT22;6376;48.182;-1.644;2022-11-20T03:06:25;12.50;85.30
12622;DHT22;6376;48.182;-1.644;2022-11-20T03:08:50;12.50;85.40
12622;DHT22;6376;48.182;-1.644;2022-11-20T03:11:16;12.50;85.50
12622;DHT22;6376;48.182;-1.644;2022-11-20T03:13:42;12.50;85.50
12622;DHT22;6376;48.182;-1.644;2022-11-20T03:16:09;12.50;85.50
12622;DHT22;6376;48.182;-1.644;2022-11-20T03:18:35;12.50;85.50
12622;DHT22;6376;48.182;-1.644;2022-11-20T03:21:01;12.50;85.60
12622;DHT22;6376;48.182;-1.644;2022-11-20T03:23:29;12.50;85.60
12622;DHT22;6376;48.182;-1.644;2022-11-20T03:25:55;12.50;85.60
12622;DHT22;6376;48.182;-1.644;2022-11-20T03:28:21;12.50;85.70
12622;DHT22;6376;48.182;-1.644;2022-11-20T03:30:46;12.40;85.70
12622;DHT22;6376;48.182;-1.644;2022-11-20T03:33:12;12.50;85.80
12622;DHT22;6376;48.182;-1.644;2022-11-20T03:35:37;12.50;85.70
12622;DHT22;6376;48.182;-1.644;2022-11-20T03:38:03;12.50;85.70
12622;DHT22;6376;48.182;-1.644;2022-11-20T03:40:29;12.50;85.80
12622;DHT22;6376;48.182;-1.644;2022-11-20T03:42:54;12.50;85.80
12622;DHT22;6376;48.182;-1.644;2022-11-20T03:45:20;12.40;85.80
12622;DHT22;6376;48.182;-1.644;2022-11-20T03:47:45;12.50;85.80
12622;DHT22;6376;48.182;-1.644;2022-11-20T03:50:12;12.50;85.90
12622;DHT22;6376;48.182;-1.644;2022-11-20T03:52:39;12.50;85.80
12622;DHT22;6376;48.182;-1.644;2022-11-20T03:55:06;12.50;85.90
12622;DHT22;6376;48.182;-1.644;2022-11-20T03:57:32;12.50;85.90
12622;DHT22;6376;48.182;-1.644;2022-11-20T03:59:58;12.50;85.80
12622;DHT22;6376;48.182;-1.644;2022-11-20T04:02:23;12.50;85.90
12622;DHT22;6376;48.182;-1.644;2022-11-20T04:04:49;12.50;85.90
12622;DHT22;6376;48.182;-1.644;2022-11-20T04:07:14;12.50;85.80
12622;DHT22;6376;48.182;-1.644;2022-11-20T04:09:40;12.50;85.90
12622;DHT22;6376;48.182;-1.644;2022-11-20T04:12:06;12.50;85.90
12622;DHT22;6376;48.182;-1.644;2022-11-20T04:14:32;12.50;86.00
12622;DHT22;6376;48.182;-1.644;2022-11-20T04:16:57;12.50;86.00
12622;DHT22;6376;48.182;-1.644;2022-11-20T04:19:23;12.50;86.00
12622;DHT22;6376;48.182;-1.644;2022-11-20T04:21:48;12.50;86.00
12622;DHT22;6376;48.182;-1.644;2022-11-20T04:24:14;12.50;86.00
12622;DHT22;6376;48.182;-1.644;2022-11-20T04:26:40;12.50;86.10
12622;DHT22;6376;48.182;-1.644;2022-11-20T04:29:06;12.50;86.10
12622;DHT22;6376;48.182;-1.644;2022-11-20T04:31:33;12.50;86.10
12622;DHT22;6376;48.182;-1.644;2022-11-20T04:34:04;12.50;86.30
12622;DHT22;6376;48.182;-1.644;2022-11-20T04:36:31;12.50;86.30
12622;DHT22;6376;48.182;-1.644;2022-11-20T04:38:58;12.50;86.20
12622;DHT22;6376;48.182;-1.644;2022-11-20T04:41:26;12.50;86.20
12622;DHT22;6376;48.182;-1.644;2022-11-20T04:43:55;12.50;86.30
12622;DHT22;6376;48.182;-1.644;2022-11-20T04:46:32;12.50;86.30
12622;DHT22;6376;48.182;-1.644;2022-11-20T04:48:58;12.50;86.40
12622;DHT22;6376;48.182;-1.644;2022-11-20T04:51:24;12.50;86.40
12622;DHT22;6376;48.182;-1.644;2022-11-20T04:53:50;12.50;86.40
12622;DHT22;6376;48.182;-1.644;2022-11-20T04:56:16;12.50;86.40
12622;DHT22;6376;48.182;-1.644;2022-11-20T04:58:42;12.50;86.40
12622;DHT22;6376;48.182;-1.644;2022-11-20T05:01:16;12.50;86.50
12622;DHT22;6376;48.182;-1.644;2022-11-20T05:03:43;12.50;86.50
12622;DHT22;6376;48.182;-1.644;2022-11-20T05:06:14;12.50;86.60
12622;DHT22;6376;48.182;-1.644;2022-11-20T05:08:40;12.50;86.50
12622;DHT22;6376;48.182;-1.644;2022-11-20T05:11:12;12.50;86.50
12622;DHT22;6376;48.182;-1.644;2022-11-20T05:13:38;12.50;86.60
12622;DHT22;6376;48.182;-1.644;2022-11-20T05:16:06;12.50;86.70
12622;DHT22;6376;48.182;-1.644;2022-11-20T05:18:33;12.50;86.70
12622;DHT22;6376;48.182;-1.644;2022-11-20T05:21:00;12.50;86.70
12622;DHT22;6376;48.182;-1.644;2022-11-20T05:23:26;12.50;86.60
12622;DHT22;6376;48.182;-1.644;2022-11-20T05:25:52;12.50;86.70
12622;DHT22;6376;48.182;-1.644;2022-11-20T05:28:19;12.50;86.70
12622;DHT22;6376;48.182;-1.644;2022-11-20T05:30:44;12.50;86.70
12622;DHT22;6376;48.182;-1.644;2022-11-20T05:33:10;12.50;86.70
12622;DHT22;6376;48.182;-1.644;2022-11-20T05:35:35;12.50;86.70
12622;DHT22;6376;48.182;-1.644;2022-11-20T05:38:01;12.50;86.70
12622;DHT22;6376;48.182;-1.644;2022-11-20T05:40:27;12.50;86.80
12622;DHT22;6376;48.182;-1.644;2022-11-20T05:42:52;12.50;86.70
12622;DHT22;6376;48.182;-1.644;2022-11-20T05:45:18;12.50;86.90
12622;DHT22;6376;48.182;-1.644;2022-11-20T05:47:43;12.50;87.60
12622;DHT22;6376;48.182;-1.644;2022-11-20T05:50:09;12.50;87.00
12622;DHT22;6376;48.182;-1.644;2022-11-20T05:52:35;12.50;86.90
12622;DHT22;6376;48.182;-1.644;2022-11-20T05:55:00;12.50;86.90
12622;DHT22;6376;48.182;-1.644;2022-11-20T05:57:26;12.50;86.90
12622;DHT22;6376;48.182;-1.644;2022-11-20T05:59:51;12.50;86.90
12622;DHT22;6376;48.182;-1.644;2022-11-20T06:02:17;12.50;86.90
12622;DHT22;6376;48.182;-1.644;2022-11-20T06:04:43;12.60;86.80
12622;DHT22;6376;48.182;-1.644;2022-11-20T06:07:08;12.60;86.70
12622;DHT22;6376;48.182;-1.644;2022-11-20T06:09:34;12.60;86.70
12622;DHT22;6376;48.182;-1.644;2022-11-20T06:12:00;12.60;86.70
12622;DHT22;6376;48.182;-1.644;2022-11-20T06:14:25;12.60;86.80
12622;DHT22;6376;48.182;-1.644;2022-11-20T06:16:51;12.50;86.90
12622;DHT22;6376;48.182;-1.644;2022-11-20T06:19:17;12.50;86.90
12622;DHT22;6376;48.182;-1.644;2022-11-20T06:21:42;12.50;86.90
12622;DHT22;6376;48.182;-1.644;2022-11-20T06:24:11;12.50;86.90
12622;DHT22;6376;48.182;-1.644;2022-11-20T06:26:37;12.60;87.90
12622;DHT22;6376;48.182;-1.644;2022-11-20T06:29:02;12.50;87.20
12622;DHT22;6376;48.182;-1.644;2022-11-20T06:31:28;12.50;87.10
12622;DHT22;6376;48.182;-1.644;2022-11-20T06:33:54;12.50;87.20
12622;DHT22;6376;48.182;-1.644;2022-11-20T06:36:22;12.50;87.20
12622;DHT22;6376;48.182;-1.644;2022-11-20T06:38:48;12.60;87.20
12622;DHT22;6376;48.182;-1.644;2022-11-20T06:41:16;12.60;87.20
12622;DHT22;6376;48.182;-1.644;2022-11-20T06:43:42;12.60;87.20
12622;DHT22;6376;48.182;-1.644;2022-11-20T06:46:09;12.60;87.20
12622;DHT22;6376;48.182;-1.644;2022-11-20T06:48:35;12.60;87.30
12622;DHT22;6376;48.182;-1.644;2022-11-20T06:51:03;12.50;87.30
12622;DHT22;6376;48.182;-1.644;2022-11-20T06:53:29;12.60;87.30
12622;DHT22;6376;48.182;-1.644;2022-11-20T06:55:56;12.60;87.40
12622;DHT22;6376;48.182;-1.644;2022-11-20T06:58:23;12.60;87.50
12622;DHT22;6376;48.182;-1.644;2022-11-20T07:00:49;12.60;87.30
12622;DHT22;6376;48.182;-1.644;2022-11-20T07:03:14;12.60;87.30
12622;DHT22;6376;48.182;-1.644;2022-11-20T07:05:40;12.50;87.40
12622;DHT22;6376;48.182;-1.644;2022-11-20T07:08:06;12.60;87.40
12622;DHT22;6376;48.182;-1.644;2022-11-20T07:10:32;12.60;87.40
12622;DHT22;6376;48.182;-1.644;2022-11-20T07:12:58;12.60;87.50
12622;DHT22;6376;48.182;-1.644;2022-11-20T07:15:24;12.60;87.60
12622;DHT22;6376;48.182;-1.644;2022-11-20T07:17:51;12.50;87.50
12622;DHT22;6376;48.182;-1.644;2022-11-20T07:20:17;12.50;87.60
12622;DHT22;6376;48.182;-1.644;2022-11-20T07:22:43;12.60;87.60
12622;DHT22;6376;48.182;-1.644;2022-11-20T07:25:09;12.60;87.60
12622;DHT22;6376;48.182;-1.644;2022-11-20T07:27:35;12.60;87.60
12622;DHT22;6376;48.182;-1.644;2022-11-20T07:30:02;12.60;87.70
12622;DHT22;6376;48.182;-1.644;2022-11-20T07:32:28;12.50;87.70
12622;DHT22;6376;48.182;-1.644;2022-11-20T07:34:53;12.60;87.70
12622;DHT22;6376;48.182;-1.644;2022-11-20T07:37:19;12.60;87.70
12622;DHT22;6376;48.182;-1.644;2022-11-20T07:39:44;12.60;87.70
12622;DHT22;6376;48.182;-1.644;2022-11-20T07:42:10;12.60;87.70
12622;DHT22;6376;48.182;-1.644;2022-11-20T07:44:37;12.60;87.70
12622;DHT22;6376;48.182;-1.644;2022-11-20T07:47:03;12.60;87.70
12622;DHT22;6376;48.182;-1.644;2022-11-20T07:49:29;12.60;87.70
12622;DHT22;6376;48.182;-1.644;2022-11-20T07:51:54;12.60;87.70
12622;DHT22;6376;48.182;-1.644;2022-11-20T07:54:20;12.60;87.60
12622;DHT22;6376;48.182;-1.644;2022-11-20T07:56:47;12.60;87.60
12622;DHT22;6376;48.182;-1.644;2022-11-20T07:59:13;12.60;87.60
12622;DHT22;6376;48.182;-1.644;2022-11-20T08:01:39;12.60;87.60
12622;DHT22;6376;48.182;-1.644;2022-11-20T08:04:05;12.60;87.60
12622;DHT22;6376;48.182;-1.644;2022-11-20T08:06:31;12.60;87.70
12622;DHT22;6376;48.182;-1.644;2022-11-20T08:08:57;12.60;87.70
12622;DHT22;6376;48.182;-1.644;2022-11-20T08:11:22;12.60;87.70
12622;DHT22;6376;48.182;-1.644;2022-11-20T08:14:07;12.60;87.80
12622;DHT22;6376;48.182;-1.644;2022-11-20T08:16:40;12.60;87.70
12622;DHT22;6376;48.182;-1.644;2022-11-20T08:19:06;12.60;87.80
12622;DHT22;6376;48.182;-1.644;2022-11-20T08:21:32;12.60;87.70
12622;DHT22;6376;48.182;-1.644;2022-11-20T08:23:58;12.60;87.70
12622;DHT22;6376;48.182;-1.644;2022-11-20T08:26:24;12.60;87.70
12622;DHT22;6376;48.182;-1.644;2022-11-20T08:28:53;12.60;87.70
12622;DHT22;6376;48.182;-1.644;2022-11-20T08:31:20;12.60;87.60
12622;DHT22;6376;48.182;-1.644;2022-11-20T08:33:46;12.70;87.50
12622;DHT22;6376;48.182;-1.644;2022-11-20T08:36:11;12.70;87.80
12622;DHT22;6376;48.182;-1.644;2022-11-20T08:38:37;12.80;87.90
12622;DHT22;6376;48.182;-1.644;2022-11-20T08:41:04;12.90;87.60
12622;DHT22;6376;48.182;-1.644;2022-11-20T08:43:49;12.90;87.60
12622;DHT22;6376;48.182;-1.644;2022-11-20T08:46:15;13.00;87.40
12622;DHT22;6376;48.182;-1.644;2022-11-20T08:48:41;13.00;87.30
12622;DHT22;6376;48.182;-1.644;2022-11-20T08:51:07;12.90;87.00
12622;DHT22;6376;48.182;-1.644;2022-11-20T08:53:32;13.00;86.90
12622;DHT22;6376;48.182;-1.644;2022-11-20T08:55:58;12.90;86.70
12622;DHT22;6376;48.182;-1.644;2022-11-20T08:58:24;12.90;86.60
12622;DHT22;6376;48.182;-1.644;2022-11-20T09:00:50;13.00;86.60
12622;DHT22;6376;48.182;-1.644;2022-11-20T09:03:16;13.00;86.60
12622;DHT22;6376;48.182;-1.644;2022-11-20T09:05:41;13.00;86.40
12622;DHT22;6376;48.182;-1.644;2022-11-20T09:08:08;13.00;86.40
12622;DHT22;6376;48.182;-1.644;2022-11-20T09:10:34;13.00;86.40
12622;DHT22;6376;48.182;-1.644;2022-11-20T09:12:59;13.10;86.30
12622;DHT22;6376;48.182;-1.644;2022-11-20T09:15:26;13.10;86.10
12622;DHT22;6376;48.182;-1.644;2022-11-20T09:17:59;13.20;85.80
12622;DHT22;6376;48.182;-1.644;2022-11-20T09:20:26;13.20;85.50
12622;DHT22;6376;48.182;-1.644;2022-11-20T09:22:54;13.30;85.40
12622;DHT22;6376;48.182;-1.644;2022-11-20T09:25:20;13.30;85.20
12622;DHT22;6376;48.182;-1.644;2022-11-20T09:27:45;13.40;85.00
12622;DHT22;6376;48.182;-1.644;2022-11-20T09:30:12;13.50;84.70
12622;DHT22;6376;48.182;-1.644;2022-11-20T09:32:39;13.50;84.60
12622;DHT22;6376;48.182;-1.644;2022-11-20T09:35:05;13.50;84.40
12622;DHT22;6376;48.182;-1.644;2022-11-20T09:37:31;13.50;84.30
12622;DHT22;6376;48.182;-1.644;2022-11-20T09:39:57;13.50;84.30
12622;DHT22;6376;48.182;-1.644;2022-11-20T09:55:48;13.70;83.70
12622;DHT22;6376;48.182;-1.644;2022-11-20T09:58:44;13.70;83.80
12622;DHT22;6376;48.182;-1.644;2022-11-20T10:01:27;13.70;83.80
12622;DHT22;6376;48.182;-1.644;2022-11-20T10:04:04;13.70;83.80
12622;DHT22;6376;48.182;-1.644;2022-11-20T10:06:44;13.60;84.00
12622;DHT22;6376;48.182;-1.644;2022-11-20T10:24:56;13.60;84.40
12622;DHT22;6376;48.182;-1.644;2022-11-20T10:30:21;13.60;84.20
12622;DHT22;6376;48.182;-1.644;2022-11-20T10:32:54;13.70;84.30
12622;DHT22;6376;48.182;-1.644;2022-11-20T10:35:37;13.70;84.10
12622;DHT22;6376;48.182;-1.644;2022-11-20T10:38:10;13.80;84.00
12622;DHT22;6376;48.182;-1.644;2022-11-20T10:40:42;13.80;83.80
12622;DHT22;6376;48.182;-1.644;2022-11-20T10:43:16;13.80;83.80
12622;DHT22;6376;48.182;-1.644;2022-11-20T10:46:03;13.70;84.00
12622;DHT22;6376;48.182;-1.644;2022-11-20T10:48:31;13.60;84.30
12622;DHT22;6376;48.182;-1.644;2022-11-20T10:54:23;13.70;84.40
12622;DHT22;6376;48.182;-1.644;2022-11-20T10:56:53;13.70;84.30
12622;DHT22;6376;48.182;-1.644;2022-11-20T11:01:56;13.60;84.40
12622;DHT22;6376;48.182;-1.644;2022-11-20T11:04:38;13.60;84.60
12622;DHT22;6376;48.182;-1.644;2022-11-20T11:07:20;13.60;84.60
12622;DHT22;6376;48.182;-1.644;2022-11-20T11:09:50;13.70;84.40
12622;DHT22;6376;48.182;-1.644;2022-11-20T11:12:15;13.70;84.30
12622;DHT22;6376;48.182;-1.644;2022-11-20T11:14:49;13.80;84.20
12622;DHT22;6376;48.182;-1.644;2022-11-20T11:17:25;13.70;84.10
12622;DHT22;6376;48.182;-1.644;2022-11-20T11:20:03;13.70;84.30
12622;DHT22;6376;48.182;-1.644;2022-11-20T11:22:32;13.70;84.40
12622;DHT22;6376;48.182;-1.644;2022-11-20T11:24:58;13.70;84.40
12622;DHT22;6376;48.182;-1.644;2022-11-20T11:27:24;13.60;84.50
12622;DHT22;6376;48.182;-1.644;2022-11-20T11:29:49;13.60;84.60
12622;DHT22;6376;48.182;-1.644;2022-11-20T11:32:18;13.60;84.60
12622;DHT22;6376;48.182;-1.644;2022-11-20T11:34:58;13.60;84.60
12622;DHT22;6376;48.182;-1.644;2022-11-20T11:37:29;13.60;84.60
12622;DHT22;6376;48.182;-1.644;2022-11-20T11:39:58;13.60;84.70
12622;DHT22;6376;48.182;-1.644;2022-11-20T11:42:23;13.60;84.70
12622;DHT22;6376;48.182;-1.644;2022-11-20T11:44:49;13.60;84.70
12622;DHT22;6376;48.182;-1.644;2022-11-20T11:47:47;13.60;84.90
12622;DHT22;6376;48.182;-1.644;2022-11-20T11:50:16;13.60;84.70
12622;DHT22;6376;48.182;-1.644;2022-11-20T11:52:51;13.60;85.50
12622;DHT22;6376;48.182;-1.644;2022-11-20T11:55:49;13.60;84.80
12622;DHT22;6376;48.182;-1.644;2022-11-20T11:58:44;13.60;84.70
12622;DHT22;6376;48.182;-1.644;2022-11-20T12:01:44;13.60;84.80
12622;DHT22;6376;48.182;-1.644;2022-11-20T12:07:01;13.60;85.00
12622;DHT22;6376;48.182;-1.644;2022-11-20T12:09:36;13.60;85.10
12622;DHT22;6376;48.182;-1.644;2022-11-20T12:12:12;13.50;85.00
12622;DHT22;6376;48.182;-1.644;2022-11-20T12:14:42;13.60;85.00
12622;DHT22;6376;48.182;-1.644;2022-11-20T12:17:12;13.50;84.90
12622;DHT22;6376;48.182;-1.644;2022-11-20T12:19:39;13.60;85.10
12622;DHT22;6376;48.182;-1.644;2022-11-20T12:22:21;13.60;85.10
12622;DHT22;6376;48.182;-1.644;2022-11-20T12:25:20;13.60;85.10
12622;DHT22;6376;48.182;-1.644;2022-11-20T12:33:54;13.60;85.00
12622;DHT22;6376;48.182;-1.644;2022-11-20T12:36:27;13.60;85.00
12622;DHT22;6376;48.182;-1.644;2022-11-20T12:41:56;13.60;85.00
12622;DHT22;6376;48.182;-1.644;2022-11-20T12:45:14;13.60;85.00
12622;DHT22;6376;48.182;-1.644;2022-11-20T12:55:42;13.60;85.20
12622;DHT22;6376;48.182;-1.644;2022-11-20T12:58:33;13.50;85.10
12622;DHT22;6376;48.182;-1.644;2022-11-20T13:03:44;13.60;85.20
12622;DHT22;6376;48.182;-1.644;2022-11-20T13:06:17;13.60;85.20
12622;DHT22;6376;48.182;-1.644;2022-11-20T13:08:50;13.60;85.10
12622;DHT22;6376;48.182;-1.644;2022-11-20T13:11:34;13.60;85.10
12622;DHT22;6376;48.182;-1.644;2022-11-20T13:19:32;13.60;85.20
12622;DHT22;6376;48.182;-1.644;2022-11-20T13:21:58;13.60;85.20
12622;DHT22;6376;48.182;-1.644;2022-11-20T13:24:29;13.60;85.20
12622;DHT22;6376;48.182;-1.644;2022-11-20T13:27:04;13.60;85.60
12622;DHT22;6376;48.182;-1.644;2022-11-20T13:29:31;13.60;85.20
12622;DHT22;6376;48.182;-1.644;2022-11-20T13:32:06;13.50;85.10
12622;DHT22;6376;48.182;-1.644;2022-11-20T13:34:32;13.60;85.20
12622;DHT22;6376;48.182;-1.644;2022-11-20T13:36:59;13.50;85.20
12622;DHT22;6376;48.182;-1.644;2022-11-20T13:39:36;13.60;85.20
12622;DHT22;6376;48.182;-1.644;2022-11-20T13:44:44;13.50;85.20
12622;DHT22;6376;48.182;-1.644;2022-11-20T13:47:24;13.50;85.20
12622;DHT22;6376;48.182;-1.644;2022-11-20T13:49:51;13.50;85.30
12622;DHT22;6376;48.182;-1.644;2022-11-20T13:55:11;13.50;85.30
12622;DHT22;6376;48.182;-1.644;2022-11-20T14:00:24;13.50;85.40
12622;DHT22;6376;48.182;-1.644;2022-11-20T14:02:58;13.50;85.40
12622;DHT22;6376;48.182;-1.644;2022-11-20T14:05:25;13.50;85.40
12622;DHT22;6376;48.182;-1.644;2022-11-20T14:07:51;13.50;85.40
12622;DHT22;6376;48.182;-1.644;2022-11-20T14:12:48;13.50;85.50
12622;DHT22;6376;48.182;-1.644;2022-11-20T14:15:32;13.50;85.50
12622;DHT22;6376;48.182;-1.644;2022-11-20T14:17:59;13.50;85.50
12622;DHT22;6376;48.182;-1.644;2022-11-20T14:20:28;13.50;85.60
12622;DHT22;6376;48.182;-1.644;2022-11-20T14:22:55;13.50;85.60
12622;DHT22;6376;48.182;-1.644;2022-11-20T14:25:25;13.50;85.60
12622;DHT22;6376;48.182;-1.644;2022-11-20T14:27:58;13.50;85.60
12622;DHT22;6376;48.182;-1.644;2022-11-20T14:30:46;13.50;85.70
12622;DHT22;6376;48.182;-1.644;2022-11-20T14:33:13;13.50;85.80
12622;DHT22;6376;48.182;-1.644;2022-11-20T14:35:46;13.50;85.70
12622;DHT22;6376;48.182;-1.644;2022-11-20T14:38:15;13.50;85.80
12622;DHT22;6376;48.182;-1.644;2022-11-20T14:40:41;13.50;85.60
12622;DHT22;6376;48.182;-1.644;2022-11-20T14:43:18;13.50;85.70
12622;DHT22;6376;48.182;-1.644;2022-11-20T14:45:48;13.50;85.60
12622;DHT22;6376;48.182;-1.644;2022-11-20T14:48:15;13.50;85.80
12622;DHT22;6376;48.182;-1.644;2022-11-20T14:50:41;13.50;85.80
12622;DHT22;6376;48.182;-1.644;2022-11-20T14:53:06;13.50;85.80
12622;DHT22;6376;48.182;-1.644;2022-11-20T14:55:35;13.50;85.70
12622;DHT22;6376;48.182;-1.644;2022-11-20T14:58:03;13.50;85.70
12622;DHT22;6376;48.182;-1.644;2022-11-20T15:00:30;13.50;85.60
12622;DHT22;6376;48.182;-1.644;2022-11-20T15:02:56;13.50;85.70
12622;DHT22;6376;48.182;-1.644;2022-11-20T15:05:26;13.50;85.80
12622;DHT22;6376;48.182;-1.644;2022-11-20T15:08:08;13.40;85.70
12622;DHT22;6376;48.182;-1.644;2022-11-20T15:10:34;13.40;85.80
12622;DHT22;6376;48.182;-1.644;2022-11-20T15:13:03;13.40;85.80
12622;DHT22;6376;48.182;-1.644;2022-11-20T15:15:34;13.50;85.80
12622;DHT22;6376;48.182;-1.644;2022-11-20T15:18:00;13.40;85.70
12622;DHT22;6376;48.182;-1.644;2022-11-20T15:20:29;13.40;85.80
12622;DHT22;6376;48.182;-1.644;2022-11-20T15:22:56;13.40;85.80
12622;DHT22;6376;48.182;-1.644;2022-11-20T15:25:22;13.40;85.80
12622;DHT22;6376;48.182;-1.644;2022-11-20T15:27:53;13.40;85.80
12622;DHT22;6376;48.182;-1.644;2022-11-20T15:30:20;13.40;85.90
12622;DHT22;6376;48.182;-1.644;2022-11-20T15:32:46;13.40;85.90
12622;DHT22;6376;48.182;-1.644;2022-11-20T15:35:13;13.40;85.90
12622;DHT22;6376;48.182;-1.644;2022-11-20T15:37:39;13.40;85.90
12622;DHT22;6376;48.182;-1.644;2022-11-20T15:40:06;13.40;85.90
12622;DHT22;6376;48.182;-1.644;2022-11-20T15:42:32;13.40;86.00
12622;DHT22;6376;48.182;-1.644;2022-11-20T15:44:58;13.40;85.90
12622;DHT22;6376;48.182;-1.644;2022-11-20T15:47:28;13.40;86.00
12622;DHT22;6376;48.182;-1.644;2022-11-20T15:49:55;13.40;86.10
12622;DHT22;6376;48.182;-1.644;2022-11-20T15:52:21;13.40;86.10
12622;DHT22;6376;48.182;-1.644;2022-11-20T15:54:46;13.40;86.10
12622;DHT22;6376;48.182;-1.644;2022-11-20T15:57:12;13.40;86.10
12622;DHT22;6376;48.182;-1.644;2022-11-20T15:59:38;13.30;86.10
12622;DHT22;6376;48.182;-1.644;2022-11-20T16:02:14;13.30;86.10
12622;DHT22;6376;48.182;-1.644;2022-11-20T16:04:40;13.30;86.10
12622;DHT22;6376;48.182;-1.644;2022-11-20T16:07:06;13.30;86.10
12622;DHT22;6376;48.182;-1.644;2022-11-20T16:09:32;13.40;86.20
12622;DHT22;6376;48.182;-1.644;2022-11-20T16:11:58;13.30;86.10
12622;DHT22;6376;48.182;-1.644;2022-11-20T16:14:26;13.30;86.10
12622;DHT22;6376;48.182;-1.644;2022-11-20T16:17:11;13.30;86.20
12622;DHT22;6376;48.182;-1.644;2022-11-20T16:19:37;13.30;86.20
12622;DHT22;6376;48.182;-1.644;2022-11-20T16:22:03;13.30;86.20
12622;DHT22;6376;48.182;-1.644;2022-11-20T16:24:29;13.30;86.30
12622;DHT22;6376;48.182;-1.644;2022-11-20T16:26:55;13.30;86.20
12622;DHT22;6376;48.182;-1.644;2022-11-20T16:29:21;13.30;86.30
12622;DHT22;6376;48.182;-1.644;2022-11-20T16:31:46;13.30;86.30
12622;DHT22;6376;48.182;-1.644;2022-11-20T16:34:12;13.30;86.30
12622;DHT22;6376;48.182;-1.644;2022-11-20T16:36:41;13.30;86.30
12622;DHT22;6376;48.182;-1.644;2022-11-20T16:39:07;13.30;86.50
12622;DHT22;6376;48.182;-1.644;2022-11-20T16:41:34;13.30;86.50
12622;DHT22;6376;48.182;-1.644;2022-11-20T16:44:02;13.20;86.40
12622;DHT22;6376;48.182;-1.644;2022-11-20T16:46:32;13.30;86.50
12622;DHT22;6376;48.182;-1.644;2022-11-20T16:49:00;13.30;86.50
12622;DHT22;6376;48.182;-1.644;2022-11-20T16:51:27;13.20;86.50
12622;DHT22;6376;48.182;-1.644;2022-11-20T16:53:54;13.20;86.50
12622;DHT22;6376;48.182;-1.644;2022-11-20T16:56:22;13.20;86.60
12622;DHT22;6376;48.182;-1.644;2022-11-20T16:58:49;13.20;86.60